createdAt,value
2018-06-29T00:00:25.460Z,98.18
2018-06-29T00:02:54.240Z,98.23
2018-06-29T00:05:23.254Z,98.16
2018-06-29T00:07:52.041Z,97.95
2018-06-29T00:10:22.891Z,98.12
2018-06-29T00:12:52.301Z,98.05
2018-06-29T00:15:22.438Z,98.87
2018-06-29T00:17:51.511Z,99.05
2018-06-29T00:20:20.726Z,98.85
2018-06-29T00:22:49.879Z,99.25
2018-06-29T00:25:19.026Z,99.31
2018-06-29T00:27:47.679Z,99.33
2018-06-29T00:30:16.694Z,99.10
2018-06-29T00:32:45.805Z,99.39
2018-06-29T00:35:14.821Z,99.47
2018-06-29T00:37:43.533Z,99.00
2018-06-29T00:40:12.644Z,99.19
2018-06-29T00:42:41.529Z,99.40
2018-06-29T00:45:10.463Z,99.18
2018-06-29T00:47:39.260Z,99.21
2018-06-29T00:50:09.556Z,99.17
2018-06-29T00:52:38.596Z,99.33
2018-06-29T00:55:07.903Z,99.75
2018-06-29T00:57:37.321Z,99.90
2018-06-29T01:00:08.041Z,100.00
2018-06-29T01:02:36.840Z,99.89
2018-06-29T01:05:05.796Z,99.95
2018-06-29T01:07:34.916Z,100.00
2018-06-29T01:10:03.670Z,99.82
2018-06-29T01:12:32.466Z,99.44
2018-06-29T01:15:01.983Z,99.82
2018-06-29T01:17:31.089Z,99.84
2018-06-29T01:20:00.246Z,99.52
2018-06-29T01:22:28.974Z,99.44
2018-06-29T01:24:57.589Z,99.10
2018-06-29T01:27:27.040Z,98.89
2018-06-29T01:29:55.805Z,99.43
2018-06-29T01:32:24.504Z,99.47
2018-06-29T01:34:53.126Z,99.30
2018-06-29T01:37:22.039Z,99.53
2018-06-29T01:39:51.599Z,99.40
2018-06-29T01:42:20.263Z,99.48
2018-06-29T01:44:49.339Z,99.98
2018-06-29T01:47:18.086Z,99.77
2018-06-29T01:49:47.241Z,99.60
2018-06-29T01:52:16.143Z,99.80
2018-06-29T01:54:45.395Z,99.67
2018-06-29T01:57:14.349Z,99.85
2018-06-29T01:59:43.004Z,100.00
2018-06-29T02:02:12.003Z,100.00
2018-06-29T02:04:41.320Z,99.82
2018-06-29T02:07:09.883Z,99.93
2018-06-29T02:09:38.750Z,99.89
2018-06-29T02:12:07.629Z,100.00
2018-06-29T02:14:36.874Z,99.90
2018-06-29T02:17:05.421Z,100.00
2018-06-29T02:19:34.205Z,100.00
2018-06-29T02:22:02.924Z,100.00
2018-06-29T02:24:31.705Z,100.00
2018-06-29T02:27:00.383Z,100.00
2018-06-29T02:29:29.835Z,100.00
2018-06-29T02:31:58.440Z,100.00
2018-06-29T02:34:27.982Z,100.00
2018-06-29T02:36:56.636Z,100.00
2018-06-29T02:39:25.501Z,100.00
2018-06-29T02:41:54.585Z,100.00
2018-06-29T02:44:23.300Z,100.00
2018-06-29T02:46:52.144Z,100.00
2018-06-29T02:49:20.804Z,100.00
2018-06-29T02:51:49.610Z,100.00
2018-06-29T02:54:18.309Z,100.00
2018-06-29T02:56:46.872Z,100.00
2018-06-29T02:59:15.516Z,100.00
2018-06-29T03:01:44.219Z,99.87
2018-06-29T03:04:13.721Z,100.00
2018-06-29T03:06:42.600Z,100.00
2018-06-29T03:09:11.600Z,99.89
2018-06-29T03:11:40.200Z,99.64
2018-06-29T03:14:09.707Z,99.80
2018-06-29T03:16:38.386Z,99.91
2018-06-29T03:19:07.197Z,100.00
2018-06-29T03:21:36.090Z,100.00
2018-06-29T03:24:04.791Z,100.00
2018-06-29T03:26:34.041Z,99.99
2018-06-29T03:29:03.431Z,100.00
2018-06-29T03:31:32.327Z,99.79
2018-06-29T03:34:01.506Z,100.00
2018-06-29T03:36:30.929Z,100.00
2018-06-29T03:39:00.101Z,100.00
2018-06-29T03:41:28.968Z,100.00
2018-06-29T03:43:57.751Z,100.00
2018-06-29T03:46:26.666Z,100.00
2018-06-29T03:48:55.499Z,100.00
2018-06-29T03:51:24.830Z,100.00
2018-06-29T03:53:53.417Z,100.00
2018-06-29T03:56:23.001Z,100.00
2018-06-29T03:58:51.817Z,100.00
2018-06-29T04:01:21.264Z,100.00
2018-06-29T04:03:50.259Z,100.00
2018-06-29T04:06:19.188Z,100.00
2018-06-29T04:08:47.816Z,100.00
2018-06-29T04:11:17.185Z,100.00
2018-06-29T04:13:46.129Z,99.99
2018-06-29T04:16:14.812Z,99.60
2018-06-29T04:18:44.014Z,100.00
2018-06-29T04:21:12.724Z,99.77
2018-06-29T04:23:41.474Z,99.74
2018-06-29T04:26:10.302Z,99.34
2018-06-29T04:28:39.783Z,99.74
2018-06-29T04:31:08.720Z,99.05
2018-06-29T04:33:37.639Z,99.47
2018-06-29T04:36:07.207Z,99.22
2018-06-29T04:38:36.550Z,99.11
2018-06-29T04:41:05.249Z,99.02
2018-06-29T04:43:34.047Z,99.21
2018-06-29T04:46:03.184Z,99.43
2018-06-29T04:48:32.012Z,98.92
2018-06-29T04:51:00.753Z,99.02
2018-06-29T04:53:29.452Z,98.55
2018-06-29T04:55:58.134Z,97.39
2018-06-29T04:58:27.404Z,96.53
2018-06-29T05:00:56.512Z,96.67
2018-06-29T05:03:25.789Z,97.34
2018-06-29T05:05:54.585Z,97.59
2018-06-29T05:08:23.311Z,97.96
2018-06-29T05:10:52.344Z,97.72
2018-06-29T05:13:21.036Z,98.13
2018-06-29T05:15:49.826Z,97.53
2018-06-29T05:18:19.399Z,97.49
2018-06-29T05:20:48.305Z,97.09
2018-06-29T05:23:18.230Z,97.35
2018-06-29T05:25:46.916Z,97.13
2018-06-29T05:28:16.316Z,96.70
2018-06-29T05:30:46.550Z,96.51
2018-06-29T05:33:15.194Z,96.63
2018-06-29T05:35:43.864Z,94.71
2018-06-29T05:38:12.785Z,94.65
2018-06-29T05:40:41.812Z,94.85
2018-06-29T05:43:10.488Z,94.25
2018-06-29T05:45:40.271Z,93.59
2018-06-29T05:48:08.986Z,91.19
2018-06-29T05:50:37.860Z,88.49
2018-06-29T05:53:07.309Z,86.52
2018-06-29T05:55:35.859Z,84.35
2018-06-29T05:58:04.701Z,83.14
2018-06-29T06:00:33.890Z,80.76
2018-06-29T06:03:02.695Z,80.30
2018-06-29T06:05:31.465Z,80.75
2018-06-29T06:08:01.012Z,82.61
2018-06-29T06:10:29.808Z,82.26
2018-06-29T06:12:59.032Z,81.96
2018-06-29T06:15:28.385Z,80.76
2018-06-29T06:17:57.190Z,81.12
2018-06-29T06:20:28.331Z,82.01
2018-06-29T06:23:01.863Z,81.96
2018-06-29T06:25:30.998Z,81.38
2018-06-29T06:27:59.666Z,82.51
2018-06-29T06:30:28.497Z,82.61
2018-06-29T06:32:57.531Z,81.93
2018-06-29T06:35:26.206Z,82.65
2018-06-29T06:37:56.176Z,81.03
2018-06-29T06:40:24.788Z,80.43
2018-06-29T06:42:53.514Z,80.85
2018-06-29T06:45:22.433Z,81.08
2018-06-29T06:47:51.111Z,80.25
2018-06-29T06:50:20.022Z,79.47
2018-06-29T06:52:49.002Z,77.94
2018-06-29T06:55:17.763Z,76.11
2018-06-29T06:57:46.422Z,73.54
2018-06-29T07:00:15.652Z,73.23
2018-06-29T07:02:44.451Z,73.10
2018-06-29T07:05:13.613Z,71.37
2018-06-29T07:07:42.496Z,71.51
2018-06-29T07:10:11.518Z,70.56
2018-06-29T07:12:40.932Z,69.97
2018-06-29T07:15:09.823Z,67.34
2018-06-29T07:17:38.835Z,64.50
2018-06-29T07:20:09.335Z,62.74
2018-06-29T07:22:38.237Z,61.86
2018-06-29T07:25:07.118Z,60.74
2018-06-29T07:27:36.631Z,57.42
2018-06-29T07:30:06.903Z,55.17
2018-06-29T07:32:36.099Z,54.46
2018-06-29T07:35:05.338Z,53.94
2018-06-29T07:37:34.617Z,51.86
2018-06-29T07:40:03.488Z,47.51
2018-06-29T07:42:33.332Z,47.87
2018-06-29T07:45:02.396Z,49.68
2018-06-29T07:47:31.146Z,49.37
2018-06-29T07:50:00.678Z,48.22
2018-06-29T07:52:29.766Z,49.30
2018-06-29T07:54:59.096Z,49.98
2018-06-29T07:57:28.528Z,50.82
2018-06-29T07:59:57.632Z,51.61
2018-06-29T08:02:26.524Z,53.52
2018-06-29T08:04:56.074Z,55.62
2018-06-29T08:07:24.803Z,56.45
2018-06-29T08:09:53.599Z,58.38
2018-06-29T08:12:22.522Z,60.04
2018-06-29T08:14:51.312Z,61.03
2018-06-29T08:17:20.236Z,61.60
2018-06-29T08:19:49.356Z,62.60
2018-06-29T08:22:18.983Z,63.64
2018-06-29T08:24:58.731Z,63.84
2018-06-29T08:27:27.476Z,64.63
2018-06-29T08:29:56.339Z,64.83
2018-06-29T08:32:25.272Z,64.42
2018-06-29T08:34:54.556Z,63.76
2018-06-29T08:37:23.563Z,63.38
2018-06-29T08:39:52.991Z,63.28
2018-06-29T08:42:21.836Z,62.84
2018-06-29T08:44:50.547Z,61.56
2018-06-29T08:47:19.523Z,61.90
2018-06-29T08:49:48.517Z,61.98
2018-06-29T08:52:17.432Z,63.26
2018-06-29T08:54:46.362Z,64.02
2018-06-29T08:57:15.266Z,64.96
2018-06-29T08:59:43.896Z,64.34
2018-06-29T09:02:13.282Z,64.75
2018-06-29T09:04:42.177Z,65.77
2018-06-29T09:07:11.033Z,65.23
2018-06-29T09:09:40.668Z,63.70
2018-06-29T09:12:09.911Z,63.86
2018-06-29T09:14:38.915Z,63.52
2018-06-29T09:17:07.725Z,63.32
2018-06-29T09:19:36.653Z,61.78
2018-06-29T09:22:05.439Z,60.59
2018-06-29T09:24:35.042Z,60.53
2018-06-29T09:27:04.338Z,59.38
2018-06-29T09:29:33.314Z,60.52
2018-06-29T09:32:02.658Z,60.43
2018-06-29T09:34:31.613Z,58.86
2018-06-29T09:37:00.282Z,58.37
2018-06-29T09:39:29.296Z,56.07
2018-06-29T09:41:58.506Z,55.21
2018-06-29T09:44:27.393Z,55.07
2018-06-29T09:46:56.069Z,54.87
2018-06-29T09:49:25.283Z,55.62
2018-06-29T09:51:54.314Z,54.98
2018-06-29T09:54:23.872Z,54.18
2018-06-29T09:56:52.527Z,52.24
2018-06-29T09:59:21.904Z,50.38
2018-06-29T10:01:50.638Z,50.47
2018-06-29T10:04:19.871Z,49.93
2018-06-29T10:06:48.865Z,48.72
2018-06-29T10:09:18.050Z,48.27
2018-06-29T10:11:46.994Z,45.97
2018-06-29T10:14:16.566Z,42.62
2018-06-29T10:16:45.327Z,40.36
2018-06-29T10:19:14.948Z,40.20
2018-06-29T10:21:44.127Z,39.67
2018-06-29T10:24:13.821Z,38.53
2018-06-29T10:26:42.724Z,38.99
2018-06-29T10:29:11.552Z,37.67
2018-06-29T10:31:40.310Z,35.18
2018-06-29T10:34:09.232Z,32.21
2018-06-29T10:36:38.742Z,31.42
2018-06-29T10:39:10.812Z,31.00
2018-06-29T10:41:39.829Z,28.36
2018-06-29T10:44:08.743Z,29.98
2018-06-29T10:46:38.297Z,28.90
2018-06-29T10:49:07.827Z,26.62
2018-06-29T10:51:36.992Z,26.22
2018-06-29T10:54:06.035Z,25.31
2018-06-29T10:56:35.141Z,25.87
2018-06-29T10:59:04.253Z,24.48
2018-06-29T11:01:32.822Z,24.29
2018-06-29T11:04:01.841Z,26.70
2018-06-29T11:06:31.178Z,27.62
2018-06-29T11:08:59.967Z,30.13
2018-06-29T11:11:28.748Z,29.35
2018-06-29T11:13:57.739Z,30.46
2018-06-29T11:16:27.244Z,29.72
2018-06-29T11:18:55.950Z,30.16
2018-06-29T11:21:24.774Z,28.90
2018-06-29T11:23:53.723Z,28.53
2018-06-29T11:26:23.204Z,28.57
2018-06-29T11:28:52.163Z,28.44
2018-06-29T11:31:21.063Z,27.79
2018-06-29T11:33:49.653Z,27.23
2018-06-29T11:36:18.767Z,26.65
2018-06-29T11:38:48.228Z,27.02
2018-06-29T11:41:16.998Z,27.32
2018-06-29T11:43:46.573Z,27.31
2018-06-29T11:46:15.645Z,26.86
2018-06-29T11:48:44.387Z,25.95
2018-06-29T11:51:13.223Z,26.32
2018-06-29T11:53:42.327Z,26.07
2018-06-29T11:56:11.338Z,26.34
2018-06-29T11:58:40.229Z,25.56
2018-06-29T12:01:09.200Z,25.98
2018-06-29T12:03:38.379Z,26.59
2018-06-29T12:06:07.533Z,25.80
2018-06-29T12:08:37.309Z,25.36
2018-06-29T12:11:06.413Z,26.38
2018-06-29T12:13:35.428Z,25.66
2018-06-29T12:16:04.449Z,27.14
2018-06-29T12:18:34.018Z,27.40
2018-06-29T12:21:02.988Z,27.61
2018-06-29T12:23:32.310Z,28.49
2018-06-29T12:26:01.375Z,29.21
2018-06-29T12:28:30.921Z,29.07
2018-06-29T12:30:59.902Z,29.39
2018-06-29T12:33:29.157Z,29.76
2018-06-29T12:35:58.310Z,29.45
2018-06-29T12:38:27.128Z,30.35
2018-06-29T12:40:56.682Z,30.65
2018-06-29T12:43:26.079Z,30.63
2018-06-29T12:45:55.384Z,30.51
2018-06-29T12:48:24.350Z,32.73
2018-06-29T12:50:53.400Z,34.31
2018-06-29T12:53:22.245Z,34.51
2018-06-29T12:55:51.238Z,34.67
2018-06-29T12:58:21.291Z,33.53
2018-06-29T13:00:50.209Z,34.08
2018-06-29T13:03:18.902Z,35.64
2018-06-29T13:05:48.021Z,36.09
2018-06-29T13:08:17.151Z,36.54
2018-06-29T13:10:46.209Z,34.56
2018-06-29T13:13:15.470Z,36.85
2018-06-29T13:15:44.462Z,36.13
2018-06-29T13:18:14.124Z,35.29
2018-06-29T13:20:44.173Z,36.21
2018-06-29T13:23:13.604Z,36.30
2018-06-29T13:25:42.700Z,37.27
2018-06-29T13:28:11.835Z,38.32
2018-06-29T13:30:41.280Z,37.26
2018-06-29T13:33:10.660Z,36.32
2018-06-29T13:35:39.758Z,36.29
2018-06-29T13:38:08.974Z,36.58
2018-06-29T13:40:38.070Z,34.66
2018-06-29T13:43:07.439Z,34.54
2018-06-29T13:45:36.378Z,35.30
2018-06-29T13:48:05.733Z,36.39
2018-06-29T13:50:34.601Z,36.77
2018-06-29T13:53:04.144Z,36.23
2018-06-29T13:55:33.998Z,37.50
2018-06-29T13:58:03.720Z,37.63
2018-06-29T14:00:32.714Z,37.67
2018-06-29T14:03:01.908Z,37.75
2018-06-29T14:05:31.234Z,37.91
2018-06-29T14:08:00.114Z,37.65
2018-06-29T14:10:28.973Z,37.68
2018-06-29T14:12:57.973Z,39.10
2018-06-29T14:15:27.063Z,38.37
2018-06-29T14:17:55.975Z,38.87
2018-06-29T14:20:24.862Z,39.02
2018-06-29T14:22:53.791Z,40.15
2018-06-29T14:25:22.643Z,40.75
2018-06-29T14:27:51.268Z,39.75
2018-06-29T14:30:20.316Z,40.40
2018-06-29T14:32:49.137Z,40.15
2018-06-29T14:35:17.954Z,40.01
2018-06-29T14:37:46.805Z,40.26
2018-06-29T14:40:15.492Z,40.46
2018-06-29T14:42:44.299Z,40.47
2018-06-29T14:45:13.784Z,41.38
2018-06-29T14:47:43.409Z,42.04
2018-06-29T14:50:12.240Z,42.83
2018-06-29T14:52:41.525Z,42.76
2018-06-29T14:55:10.925Z,43.62
2018-06-29T14:57:39.853Z,44.47
2018-06-29T15:00:10.194Z,44.62
2018-06-29T15:02:39.406Z,44.77
2018-06-29T15:05:08.745Z,45.88
2018-06-29T15:07:37.494Z,44.57
2018-06-29T15:10:07.045Z,44.84
2018-06-29T15:12:36.659Z,43.79
2018-06-29T15:15:05.505Z,44.20
2018-06-29T15:17:35.718Z,45.58
2018-06-29T15:20:05.720Z,43.84
2018-06-29T15:22:34.252Z,44.16
2018-06-29T15:25:02.981Z,43.22
2018-06-29T15:27:32.864Z,43.00
2018-06-29T15:30:01.975Z,43.30
2018-06-29T15:32:30.625Z,44.18
2018-06-29T15:34:59.353Z,44.10
2018-06-29T15:37:28.225Z,45.50
2018-06-29T15:39:57.265Z,45.46
2018-06-29T15:42:26.043Z,46.27
2018-06-29T15:44:56.929Z,46.58
2018-06-29T15:47:26.445Z,47.50
2018-06-29T15:49:55.544Z,48.76
2018-06-29T15:52:24.774Z,49.05
2018-06-29T15:54:53.852Z,48.65
2018-06-29T15:57:22.559Z,48.44
2018-06-29T15:59:51.414Z,48.28
2018-06-29T16:02:20.335Z,48.29
2018-06-29T16:04:49.936Z,49.78
2018-06-29T16:07:19.169Z,49.67
2018-06-29T16:09:48.049Z,51.59
2018-06-29T16:12:16.794Z,49.56
2018-06-29T16:14:45.485Z,48.51
2018-06-29T16:17:14.135Z,48.80
2018-06-29T16:19:43.286Z,48.37
2018-06-29T16:22:12.229Z,47.88
2018-06-29T16:24:41.751Z,48.05
2018-06-29T16:27:11.380Z,47.53
2018-06-29T16:29:40.190Z,47.69
2018-06-29T16:32:09.320Z,48.08
2018-06-29T16:34:38.350Z,49.08
2018-06-29T16:37:07.072Z,49.12
2018-06-29T16:39:35.910Z,48.99
2018-06-29T16:42:04.591Z,49.54
2018-06-29T16:44:33.845Z,50.12
2018-06-29T16:47:03.192Z,49.64
2018-06-29T16:49:32.048Z,49.34
2018-06-29T16:52:01.400Z,49.27
2018-06-29T16:54:30.171Z,49.80
2018-06-29T16:56:59.302Z,49.32
2018-06-29T16:59:28.520Z,49.70
2018-06-29T17:01:57.197Z,50.69
2018-06-29T17:04:26.337Z,49.66
2018-06-29T17:06:55.603Z,49.54
2018-06-29T17:09:24.539Z,49.70
2018-06-29T17:11:54.200Z,49.55
2018-06-29T17:14:22.927Z,50.43
2018-06-29T17:16:52.675Z,50.51
2018-06-29T17:19:21.890Z,51.24
2018-06-29T17:21:51.125Z,50.11
2018-06-29T17:24:20.188Z,50.38
2018-06-29T17:26:49.128Z,50.96
2018-06-29T17:29:18.083Z,50.80
2018-06-29T17:31:46.945Z,49.84
2018-06-29T17:34:15.784Z,50.66
2018-06-29T17:36:44.526Z,51.93
2018-06-29T17:39:13.544Z,52.36
2018-06-29T17:41:42.405Z,52.81
2018-06-29T17:44:12.089Z,52.67
2018-06-29T17:46:41.343Z,51.53
2018-06-29T17:49:10.585Z,51.58
2018-06-29T17:51:39.796Z,52.64
2018-06-29T17:54:09.123Z,52.03
2018-06-29T17:56:39.234Z,52.20
2018-06-29T17:59:08.565Z,52.29
2018-06-29T18:01:37.834Z,52.04
2018-06-29T18:04:07.036Z,52.70
2018-06-29T18:06:36.352Z,53.34
2018-06-29T18:09:08.093Z,52.96
2018-06-29T18:11:37.724Z,53.73
2018-06-29T18:14:07.049Z,52.70
2018-06-29T18:16:36.044Z,53.32
2018-06-29T18:19:05.389Z,54.08
2018-06-29T18:21:34.337Z,54.29
2018-06-29T18:24:04.053Z,56.60
2018-06-29T18:26:33.642Z,57.04
2018-06-29T18:29:03.097Z,57.64
2018-06-29T18:31:32.103Z,58.07
2018-06-29T18:34:01.615Z,60.00
2018-06-29T18:36:30.815Z,62.17
2018-06-29T18:38:59.966Z,62.61
2018-06-29T18:41:29.326Z,63.75
2018-06-29T18:43:58.774Z,64.65
2018-06-29T18:46:28.817Z,64.29
2018-06-29T18:48:59.036Z,64.99
2018-06-29T18:51:28.107Z,66.64
2018-06-29T18:53:57.281Z,67.06
2018-06-29T18:56:26.457Z,66.86
2018-06-29T18:58:55.691Z,67.27
2018-06-29T19:01:25.205Z,67.42
2018-06-29T19:03:55.082Z,68.58
2018-06-29T19:06:24.320Z,69.51
2018-06-29T19:08:53.685Z,71.83
2018-06-29T19:11:23.663Z,72.04
2018-06-29T19:13:53.285Z,72.57
2018-06-29T19:16:23.506Z,71.93
2018-06-29T19:18:52.395Z,71.51
2018-06-29T19:21:21.484Z,71.93
2018-06-29T19:23:50.591Z,72.11
2018-06-29T19:26:19.906Z,72.47
2018-06-29T19:28:49.056Z,72.47
2018-06-29T19:31:18.373Z,72.97
2018-06-29T19:33:47.560Z,72.96
2018-06-29T19:36:16.366Z,73.28
2018-06-29T19:38:45.348Z,73.51
2018-06-29T19:41:14.187Z,73.66
2018-06-29T19:43:43.090Z,74.31
2018-06-29T19:46:11.896Z,74.79
2018-06-29T19:48:40.830Z,75.51
2018-06-29T19:51:10.187Z,75.71
2018-06-29T19:53:39.224Z,76.67
2018-06-29T19:56:08.599Z,76.88
2018-06-29T19:58:38.326Z,77.54
2018-06-29T20:01:08.301Z,77.75
2018-06-29T20:03:37.186Z,78.23
2018-06-29T20:06:06.455Z,78.47
2018-06-29T20:08:35.700Z,78.38
2018-06-29T20:11:04.540Z,79.16
2018-06-29T20:13:33.475Z,79.74
2018-06-29T20:16:02.450Z,80.17
2018-06-29T20:18:31.437Z,80.14
2018-06-29T20:21:00.831Z,80.09
2018-06-29T20:23:30.056Z,80.47
2018-06-29T20:25:59.215Z,80.41
2018-06-29T20:28:28.107Z,81.34
2018-06-29T20:30:57.769Z,80.63
2018-06-29T20:33:26.575Z,81.93
2018-06-29T20:35:56.115Z,81.88
2018-06-29T20:38:25.375Z,82.10
2018-06-29T20:40:54.525Z,82.65
2018-06-29T20:43:23.916Z,82.45
2018-06-29T20:45:52.915Z,82.58
2018-06-29T20:48:22.262Z,82.94
2018-06-29T20:50:51.365Z,82.86
2018-06-29T20:53:21.856Z,82.59
2018-06-29T20:55:50.826Z,82.94
2018-06-29T20:58:20.137Z,83.30
2018-06-29T21:00:49.437Z,83.23
2018-06-29T21:03:18.187Z,83.92
2018-06-29T21:05:47.810Z,84.01
2018-06-29T21:08:16.898Z,83.95
2018-06-29T21:10:45.870Z,84.30
2018-06-29T21:13:14.550Z,84.67
2018-06-29T21:15:43.692Z,84.64
2018-06-29T21:18:12.667Z,85.12
2018-06-29T21:20:42.190Z,85.72
2018-06-29T21:23:10.992Z,85.56
2018-06-29T21:25:40.615Z,85.98
2018-06-29T21:28:09.635Z,86.52
2018-06-29T21:30:38.601Z,86.17
2018-06-29T21:33:08.166Z,86.32
2018-06-29T21:35:36.772Z,86.84
2018-06-29T21:38:05.750Z,86.58
2018-06-29T21:40:34.756Z,87.32
2018-06-29T21:43:03.901Z,87.39
2018-06-29T21:45:32.720Z,87.23
2018-06-29T21:48:01.528Z,87.44
2018-06-29T21:50:30.326Z,87.64
2018-06-29T21:52:59.220Z,87.36
2018-06-29T21:55:28.167Z,87.45
2018-06-29T21:57:57.665Z,87.45
2018-06-29T22:00:31.754Z,88.09
2018-06-29T22:03:04.708Z,88.00
2018-06-29T22:05:33.792Z,87.54
2018-06-29T22:08:02.531Z,88.03
2018-06-29T22:10:31.429Z,88.15
2018-06-29T22:13:00.277Z,88.03
2018-06-29T22:15:29.133Z,88.05
2018-06-29T22:17:57.721Z,88.10
2018-06-29T22:20:26.472Z,87.96
2018-06-29T22:22:55.516Z,88.50
2018-06-29T22:25:24.455Z,88.60
2018-06-29T22:27:53.201Z,88.33
2018-06-29T22:30:22.202Z,88.86
2018-06-29T22:32:51.806Z,88.73
2018-06-29T22:35:21.682Z,88.39
2018-06-29T22:37:50.556Z,88.93
2018-06-29T22:40:20.113Z,89.09
2018-06-29T22:42:49.798Z,88.40
2018-06-29T22:45:18.537Z,88.62
2018-06-29T22:47:47.731Z,88.73
2018-06-29T22:50:16.986Z,89.36
2018-06-29T22:52:46.318Z,89.33
2018-06-29T22:55:15.320Z,89.93
2018-06-29T22:57:44.154Z,89.96
2018-06-29T23:00:12.898Z,89.98
2018-06-29T23:02:42.217Z,89.99
2018-06-29T23:05:11.282Z,90.05
2018-06-29T23:07:40.201Z,89.87
2018-06-29T23:10:08.868Z,90.24
2018-06-29T23:12:37.673Z,90.41
2018-06-29T23:15:06.617Z,90.66
2018-06-29T23:17:35.468Z,90.26
2018-06-29T23:20:04.754Z,90.59
2018-06-29T23:22:34.277Z,90.29
2018-06-29T23:25:04.172Z,90.76
2018-06-29T23:27:32.967Z,91.12
2018-06-29T23:30:01.695Z,91.05
2018-06-29T23:32:30.399Z,90.72
2018-06-29T23:34:59.008Z,91.16
2018-06-29T23:37:28.443Z,91.41
2018-06-29T23:39:57.141Z,91.15
2018-06-29T23:42:26.438Z,91.00
2018-06-29T23:44:55.146Z,91.55
2018-06-29T23:47:24.193Z,91.70
2018-06-29T23:49:53.566Z,91.45
2018-06-29T23:52:22.631Z,91.55
2018-06-29T23:54:51.556Z,91.23
2018-06-29T23:57:20.357Z,91.07
2018-06-29T23:59:49.301Z,91.60
